Langston, OK (73050)

10:31 PM CDT on May 06, 2015 (GMT -0500)
Near Antelope Creek | | Change Station
CLOSE
Current Station
Personal Weather Station
Location: Guthrie, OK
Elevation: 1109 ft
Nearby Weather Stations
Active Advisory: Tornado Watch

Elev 1109 ft 35.91 °N, 97.35 °W | Updated 18 seconds ago

Clear
Clear
71.7 °F
Feels Like 70 °F
N
14.0
Wind Variable Wind from SSE
Gusts 25.0 mph

Today
High -- | Low -- °F
--% Chance of Precip.
Yesterday
High -- | Low -- °F
Precip. -- in
6:31 AM 8:20 PM
Waning Gibbous, 91% visible
Pressure 29.74 in
Visibility 10.0 miles
Clouds Clear
Heat Index 70 °F
Dew Point 67 °F
Humidity 86%
Rainfall 0.93 in
Snow Depth Not available.
UV 0 out of 12
Pollen 3.50 out of 12
Air Quality Not available.
Flu Activity Local Activity
METAR KGOK 070253Z AUTO 15016G30KT 10SM CLR 23/18 A2976 RMK AO2 PK WND 18038/0210 LTG DSNT E-SW SLP071 T02280178 56003

More Conditions Fewer Conditions

Pressure 29.74 in
Visibility 10.0 miles
Clouds Clear
Heat Index 70 °F
Dew Point 67 °F
Humidity 86%
Rainfall 0.93 in
Snow Depth Not available.
UV 0 out of 12
Pollen 3.50 out of 12
Air Quality Not available.
Flu Activity Local Activity
METAR KGOK 070253Z AUTO 15016G30KT 10SM CLR 23/18 A2976 RMK AO2 PK WND 18038/0210 LTG DSNT E-SW SLP071 T02280178 56003

More Conditions Fewer Conditions

The Storm Prediction Center has issued an enhanced risk of severe weather for parts of central Texas, Oklahoma, Kansas, and southern Nebraska. Severe thunderstorms are developing throughout the area, producing tornadoes, heavy rain, and large hail. Tornadoes will be possible into the evening.

10-Day Weather Forecast

Almanac

Astronomy

May. 06, 2015 Rise Set
Actual Time
Civil Twilight
Nautical Twilight
Astronomical Twilight
Moon
Length of Visible Light
Length of Day
Tomorrow will be .
, % of the Moon is Illuminated

Today's Extremes

State Highs State Lows

Community

WunderPhotos

Upload Photos

1,819,103 photos uploaded!

WunderBlogs® & News

Nearby

Air Quality

  Air Quality AQ Index Pollutant
Not available.

Snow Depth

Station Depth Elevation

Earthquake Activity

City Distance Mag. Time & Date
Minimum magnitude displayed is 2.5.

Coastal Water Temperatures

Place Temperature

Stations

Nearby Weather Stations

Station Location Temp. Windchill Dew Point Humidity Wind Precip. Elev Updated Type
                   
Tornado Watch
Statement as of 10:24 PM CDT on May 06, 2015

Tornado Watch 137 remains in effect until 200 am CDT for the
following locations


OK
. Oklahoma counties included are

Alfalfa Blaine Caddo
Canadian Carter Cleveland
Comanche Cotton Custer
Dewey Garfield Garvin
Grady Grant Jackson
Jefferson Kay Kingfisher
Kiowa Lincoln Logan
Love McClain major
Murray Noble Oklahoma
Payne Pottawatomie Stephens
Tillman Washita